Aérodrome :
LOGIN :

S'inscrire | Disclaimer

   EN    FR    IT 

 










Légende :    VFR   VFR Marginal   IFR   IFR Intensif   IFR Très Intensif
Visi : 
Plafond : 
>= 8 km
>= 3000ft
5 à 8 km
1000 à 3000 ft
1500m à 5 km
500 à 1000 ft
800 à 1500m
200 à 500 ft
< 800m
< 200 ft
Symboles :   Orages  Brouillard  Fortes neiges  Fortes précipitations  Vent > 20 kt
SIGMETs :   Divers  Orages  Givrage  Turbulence  Onde Orograph.  Cendres Volcan.







- Altitude de l'aérodrome : 299 ft
- Code IATA : EDM
- Voir les cartes d'approche


LFRI - La Roche Sur Yon - Les Ajoncs

DERNIER METAR :
  • 211100Z AUTO 05008KT 020V080 CAVOK 22/11 Q1011 TEMPO SHRA SCT050CB

METARs EXPIRÉS :
  • 211030Z AUTO 06005KT 360V120 CAVOK 23/11 Q1012 TEMPO SHRA SCT050CB
  • 211000Z AUTO 04007KT 350V070 CAVOK 23/13 Q1012 NOSIG
  • 210930Z AUTO 04007KT 010V070 CAVOK 22/12 Q1012 NOSIG
  • 210900Z AUTO 04006KT 350V070 9999 FEW016 22/13 Q1012 NOSIG
  • 210830Z AUTO 04005KT 010V080 CAVOK 21/13 Q1012 NOSIG

TAF TAF LFRI
Valide du 21 à 06h jusqu'au 22 à 06h UTC


210500Z 2106/2206 04005KT CAVOK
TEMPO 2112/2121 SHRA SCT050CB
TEMPO 2114/2118 VRB15G25KT 3000 TSRAGR BKN040CB
Pas de NOTAMs connus pour ce terrain.



MET'MAP, la Météo Aéronautique d'un coup d'oeil ! - Copyright ORBIFLY Décembre 2007 - Disclaimer

ORBIFLY MET'MAP TEAM :

Programmation & Développement : Alexandra Zaïnal
Conception & Développement : Baudouin d'Aumeries
Co-Programmation & Développement : Marc-Olivier Méhu
Soutien technique & logistique : Manuel Goepfert

Contact : metmap@orbifly.com




SOURCES & CREDITS :

   NOAA